Time;durP1;ratioP1;P1;durP2;ratioP2;P2;SDS_P1;SDS_P2;PMS_P1;PMS_P2;Temp;Humidity;BMP_temperature;BMP_pressure;BME280_temperature;BME280_humidity;BME280_pressure;Samples;Min_cycle;Max_cycle;Signal;HPM_P1;HPM_P2
2024/02/14 00:01:10;;;;;;;;;;;2.80;100.00;;;;;;4990426;28;19937;-72
2024/02/14 00:03:37;;;;;;;;;;;2.70;100.00;;;;;;4984288;28;19937;-72
2024/02/14 00:06:05;;;;;;;;;;;2.80;100.00;;;;;;4986238;28;19965;-72
2024/02/14 00:08:32;;;;;;;;;;;2.80;100.00;;;;;;4990558;28;19936;-72
2024/02/14 00:11:00;;;;;;;;;;;2.80;100.00;;;;;;4986928;28;19995;-72
2024/02/14 00:13:27;;;;;;;;;;;2.80;100.00;;;;;;4981130;28;19938;-72
2024/02/14 00:15:54;;;;;;;;;;;2.80;100.00;;;;;;5003887;28;19929;-72
2024/02/14 00:18:22;;;;;;;;;;;2.80;100.00;;;;;;4990477;28;19958;-72
2024/02/14 00:20:49;;;;;;;;;;;2.90;100.00;;;;;;5001588;28;19940;-72
2024/02/14 00:23:16;;;;;;;;;;;2.90;100.00;;;;;;4985952;28;19961;-72
2024/02/14 00:25:43;;;;;;;;;;;2.90;100.00;;;;;;4990359;28;19929;-72
2024/02/14 00:28:10;;;;;;;;;;;2.90;100.00;;;;;;4984828;28;19930;-72
2024/02/14 00:30:36;;;;;;;;;;;2.90;100.00;;;;;;4985681;28;19991;-72
2024/02/14 00:33:03;;;;;;;;;;;2.90;100.00;;;;;;4984772;28;20331;-72
2024/02/14 00:35:31;;;;;;;;;;;2.90;100.00;;;;;;4982855;28;19933;-72
2024/02/14 00:37:57;;;;;;;;;;;2.90;100.00;;;;;;4984744;28;19930;-72
2024/02/14 00:40:25;;;;;;;;;;;2.90;100.00;;;;;;4986516;28;19933;-72
2024/02/14 00:42:52;;;;;;;;;;;2.90;100.00;;;;;;4978865;28;19926;-72
2024/02/14 00:45:18;;;;;;;;;;;2.90;100.00;;;;;;4986446;28;20508;-72
2024/02/14 00:47:45;;;;;;;;;;;2.90;100.00;;;;;;4991570;28;20290;-72
2024/02/14 00:50:13;;;;;;;;;;;2.90;100.00;;;;;;4985404;28;19965;-72
2024/02/14 00:52:40;;;;;;;;;;;2.90;100.00;;;;;;4982797;28;20695;-72
2024/02/14 00:55:07;;;;;;;;;;;2.90;100.00;;;;;;4983926;28;19957;-72
2024/02/14 00:57:34;;;;;;;;;;;2.80;100.00;;;;;;4986061;28;19937;-72
2024/02/14 01:00:01;;;;;;;;;;;2.80;100.00;;;;;;4984433;28;19941;-72
2024/02/14 01:02:28;;;;;;;;;;;2.80;100.00;;;;;;4989174;28;19936;-72
2024/02/14 01:04:54;;;;;;;;;;;2.70;100.00;;;;;;4984760;28;19929;-72
2024/02/14 01:07:21;;;;;;;;;;;2.70;100.00;;;;;;4985647;28;19937;-72
2024/02/14 01:09:48;;;;;;;;;;;2.60;100.00;;;;;;4985240;28;20596;-72
2024/02/14 01:12:15;;;;;;;;;;;2.60;100.00;;;;;;4981072;28;19930;-72
2024/02/14 01:14:42;;;;;;;;;;;2.50;100.00;;;;;;4983999;28;20435;-72
2024/02/14 01:17:08;;;;;;;;;;;2.50;100.00;;;;;;4984938;28;19930;-72
2024/02/14 01:19:35;;;;;;;;;;;2.50;100.00;;;;;;4985514;28;19929;-72
2024/02/14 01:22:03;;;;;;;;;;;2.40;100.00;;;;;;4985395;28;20308;-72
2024/02/14 01:24:30;;;;;;;;;;;2.40;100.00;;;;;;4985217;28;20278;-72
2024/02/14 01:26:57;;;;;;;;;;;2.40;100.00;;;;;;4978549;28;19981;-72
2024/02/14 01:29:24;;;;;;;;;;;2.40;100.00;;;;;;4999955;28;20275;-72
2024/02/14 01:31:50;;;;;;;;;;;2.40;100.00;;;;;;4987177;28;19933;-72
2024/02/14 01:34:17;;;;;;;;;;;2.40;100.00;;;;;;4984647;28;20303;-72
2024/02/14 01:36:45;;;;;;;;;;;2.40;100.00;;;;;;4985418;28;19930;-72
2024/02/14 01:39:12;;;;;;;;;;;2.40;100.00;;;;;;4984975;28;19965;-72
2024/02/14 01:41:45;;;;;;;;;;;2.40;100.00;;;;;;4985567;28;19937;-72
2024/02/14 01:44:12;;;;;;;;;;;2.40;100.00;;;;;;4979072;28;19925;-72
2024/02/14 01:46:39;;;;;;;;;;;2.40;100.00;;;;;;4984823;28;20275;-72
2024/02/14 01:49:05;;;;;;;;;;;2.40;100.00;;;;;;4984398;28;20778;-72
2024/02/14 01:51:33;;;;;;;;;;;2.40;100.00;;;;;;4985418;28;19930;-72
2024/02/14 01:54:00;;;;;;;;;;;2.40;100.00;;;;;;4985440;28;20012;-72
2024/02/14 01:56:27;;;;;;;;;;;2.40;100.00;;;;;;4984645;28;20017;-72
2024/02/14 01:58:54;;;;;;;;;;;2.30;100.00;;;;;;4981598;28;20345;-72
2024/02/14 02:01:23;;;;;;;;;;;2.40;100.00;;;;;;4991179;28;20596;-72
2024/02/14 02:03:50;;;;;;;;;;;2.30;100.00;;;;;;4985800;28;19944;-72
2024/02/14 02:06:17;;;;;;;;;;;2.30;100.00;;;;;;4985056;28;20104;-72
2024/02/14 02:08:44;;;;;;;;;;;2.30;100.00;;;;;;4984787;28;20032;-72
2024/02/14 02:11:11;;;;;;;;;;;2.30;100.00;;;;;;4984735;28;20024;-72
2024/02/14 02:13:41;;;;;;;;;;;2.30;100.00;;;;;;4983946;28;19937;-72
2024/02/14 02:16:08;;;;;;;;;;;2.30;100.00;;;;;;4984996;28;20849;-72
2024/02/14 02:18:34;;;;;;;;;;;2.40;100.00;;;;;;4981069;28;19973;-72
2024/02/14 02:21:06;;;;;;;;;;;2.40;100.00;;;;;;4983515;28;20040;-72
2024/02/14 02:23:34;;;;;;;;;;;2.40;100.00;;;;;;4985539;28;20444;-72
2024/02/14 02:26:01;;;;;;;;;;;2.40;100.00;;;;;;4984332;28;20013;-72
2024/02/14 02:28:28;;;;;;;;;;;2.50;100.00;;;;;;4983408;28;19934;-72
2024/02/14 02:30:55;;;;;;;;;;;2.50;100.00;;;;;;4990774;28;19930;-72
2024/02/14 02:33:22;;;;;;;;;;;2.50;100.00;;;;;;4989478;28;19933;-75
2024/02/14 02:35:49;;;;;;;;;;;2.50;100.00;;;;;;4987867;28;20322;-75
2024/02/14 02:38:17;;;;;;;;;;;2.50;100.00;;;;;;5005815;28;19929;-75
2024/02/14 02:40:44;;;;;;;;;;;2.50;100.00;;;;;;4989070;28;19930;-75
2024/02/14 02:43:11;;;;;;;;;;;2.50;100.00;;;;;;4988679;28;19933;-75
2024/02/14 02:45:38;;;;;;;;;;;2.60;100.00;;;;;;5004114;28;19934;-75
2024/02/14 02:48:05;;;;;;;;;;;2.50;100.00;;;;;;4988402;28;19968;-75
2024/02/14 02:50:32;;;;;;;;;;;2.60;100.00;;;;;;5003061;28;20039;-75
2024/02/14 02:52:59;;;;;;;;;;;2.60;100.00;;;;;;4987525;28;20064;-75
2024/02/14 02:55:26;;;;;;;;;;;2.60;100.00;;;;;;4984622;28;20295;-75
2024/02/14 02:57:53;;;;;;;;;;;2.60;100.00;;;;;;4988557;28;19969;-75
2024/02/14 03:00:21;;;;;;;;;;;2.60;100.00;;;;;;4986838;28;20020;-75
2024/02/14 03:02:48;;;;;;;;;;;2.60;100.00;;;;;;4996461;28;20385;-75
2024/02/14 03:05:18;;;;;;;;;;;2.60;100.00;;;;;;4990639;28;20791;-75
2024/02/14 03:07:47;;;;;;;;;;;2.60;100.00;;;;;;4989816;28;19929;-75
2024/02/14 03:10:17;;;;;;;;;;;2.60;100.00;;;;;;4988868;28;19929;-75
2024/02/14 03:12:45;;;;;;;;;;;2.70;100.00;;;;;;4988659;28;19992;-75
2024/02/14 03:15:13;;;;;;;;;;;2.70;100.00;;;;;;4988395;28;19957;-75
2024/02/14 03:17:40;;;;;;;;;;;2.70;100.00;;;;;;4986298;28;20046;-75
2024/02/14 03:20:10;;;;;;;;;;;2.70;100.00;;;;;;4988281;28;19929;-74
2024/02/14 03:22:44;;;;;;;;;;;2.80;100.00;;;;;;5001924;28;19973;-74
2024/02/14 03:25:12;;;;;;;;;;;2.80;100.00;;;;;;5002661;28;19933;-75
2024/02/14 03:27:39;;;;;;;;;;;2.80;100.00;;;;;;4987878;28;19936;-75
2024/02/14 03:30:06;;;;;;;;;;;2.80;100.00;;;;;;4988429;28;20084;-74
2024/02/14 03:32:33;;;;;;;;;;;2.80;100.00;;;;;;4995566;28;20355;-74
2024/02/14 03:35:00;;;;;;;;;;;2.80;100.00;;;;;;4987715;28;20443;-74
2024/02/14 03:37:27;;;;;;;;;;;2.90;100.00;;;;;;4987594;28;19934;-74
2024/02/14 03:39:54;;;;;;;;;;;2.90;100.00;;;;;;4982514;28;19984;-74
2024/02/14 03:42:20;;;;;;;;;;;2.90;100.00;;;;;;4988054;28;19965;-75
2024/02/14 03:44:47;;;;;;;;;;;3.00;100.00;;;;;;4987612;28;19934;-74
2024/02/14 03:47:14;;;;;;;;;;;3.00;100.00;;;;;;4987580;28;19936;-75
2024/02/14 03:49:40;;;;;;;;;;;3.00;100.00;;;;;;4987395;28;20007;-74
2024/02/14 03:52:09;;;;;;;;;;;3.10;100.00;;;;;;4986543;28;20044;-74
2024/02/14 03:54:37;;;;;;;;;;;3.10;100.00;;;;;;4985653;28;19984;-74
2024/02/14 03:57:07;;;;;;;;;;;3.10;100.00;;;;;;4987249;28;19934;-74
2024/02/14 03:59:38;;;;;;;;;;;3.10;100.00;;;;;;4985811;28;19942;-75
2024/02/14 04:02:08;;;;;;;;;;;3.10;100.00;;;;;;5006975;23;19925;-75
2024/02/14 04:04:39;;;;;;;;;;;3.10;100.00;;;;;;5018907;28;20038;-74
2024/02/14 04:07:06;;;;;;;;;;;3.10;100.00;;;;;;5016053;28;19975;-75
2024/02/14 04:09:33;;;;;;;;;;;3.10;100.00;;;;;;5020698;28;19929;-75
2024/02/14 04:11:59;;;;;;;;;;;3.10;100.00;;;;;;5022640;28;19933;-74
2024/02/14 04:14:26;;;;;;;;;;;3.10;100.00;;;;;;5024862;28;19939;-74
2024/02/14 04:16:54;;;;;;;;;;;3.10;100.00;;;;;;5025695;28;19929;-74
2024/02/14 04:19:21;;;;;;;;;;;3.20;100.00;;;;;;5024497;28;19968;-74
2024/02/14 04:21:48;;;;;;;;;;;3.20;100.00;;;;;;5028738;28;19940;-74
2024/02/14 04:24:15;;;;;;;;;;;3.20;100.00;;;;;;5029666;28;20334;-74
2024/02/14 04:26:42;;;;;;;;;;;3.20;100.00;;;;;;5021996;28;19980;-74
2024/02/14 04:29:09;;;;;;;;;;;3.20;100.00;;;;;;5025004;28;20373;-74
2024/02/14 04:31:35;;;;;;;;;;;3.20;100.00;;;;;;5020163;28;20527;-74
2024/02/14 04:34:02;;;;;;;;;;;3.30;100.00;;;;;;5013122;28;19985;-74
2024/02/14 04:36:30;;;;;;;;;;;3.30;100.00;;;;;;5019082;28;20032;-74
2024/02/14 04:38:57;;;;;;;;;;;3.30;100.00;;;;;;5016931;28;19925;-74
2024/02/14 04:41:23;;;;;;;;;;;3.30;100.00;;;;;;5015905;28;19971;-74
2024/02/14 04:43:50;;;;;;;;;;;3.30;100.00;;;;;;5022589;28;19936;-74
2024/02/14 04:46:17;;;;;;;;;;;3.30;100.00;;;;;;5019131;28;19995;-74
2024/02/14 04:48:43;;;;;;;;;;;3.30;100.00;;;;;;5018215;28;19969;-74
2024/02/14 04:51:10;;;;;;;;;;;3.30;100.00;;;;;;5023158;28;19929;-75
2024/02/14 04:53:37;;;;;;;;;;;3.30;100.00;;;;;;5019119;28;19929;-75
2024/02/14 04:56:04;;;;;;;;;;;3.30;100.00;;;;;;5012228;28;19929;-76
2024/02/14 04:58:31;;;;;;;;;;;3.20;100.00;;;;;;5023413;28;19987;-75
2024/02/14 05:00:57;;;;;;;;;;;3.30;100.00;;;;;;5034843;28;20655;-76
2024/02/14 05:03:25;;;;;;;;;;;3.20;100.00;;;;;;5020626;28;19926;-76
2024/02/14 05:05:52;;;;;;;;;;;3.30;100.00;;;;;;5021357;28;19933;-76
2024/02/14 05:08:19;;;;;;;;;;;3.30;100.00;;;;;;5018091;28;19933;-76
2024/02/14 05:10:46;;;;;;;;;;;3.20;100.00;;;;;;5016211;28;19930;-76
2024/02/14 05:13:15;;;;;;;;;;;3.20;100.00;;;;;;5024890;28;19995;-76
2024/02/14 05:15:42;;;;;;;;;;;3.30;100.00;;;;;;5017953;28;19930;-75
2024/02/14 05:18:09;;;;;;;;;;;3.20;100.00;;;;;;5024154;28;19944;-75
2024/02/14 05:20:38;;;;;;;;;;;3.20;100.00;;;;;;5040915;28;19929;-75
2024/02/14 05:23:04;;;;;;;;;;;3.20;100.00;;;;;;5021546;28;19937;-75
2024/02/14 05:25:32;;;;;;;;;;;3.20;100.00;;;;;;5024705;28;19936;-75
2024/02/14 05:28:00;;;;;;;;;;;3.20;100.00;;;;;;5020487;28;20060;-75
2024/02/14 05:30:27;;;;;;;;;;;3.20;100.00;;;;;;5018236;28;19964;-75
2024/02/14 05:32:54;;;;;;;;;;;3.20;100.00;;;;;;5016026;28;19979;-75
2024/02/14 05:35:22;;;;;;;;;;;3.20;100.00;;;;;;5021469;28;19929;-75
2024/02/14 05:37:50;;;;;;;;;;;3.20;100.00;;;;;;5024872;28;19960;-76
2024/02/14 05:40:16;;;;;;;;;;;3.20;100.00;;;;;;5042634;28;19929;-75
2024/02/14 05:42:43;;;;;;;;;;;3.20;100.00;;;;;;5020089;28;19925;-75
2024/02/14 05:45:13;;;;;;;;;;;3.20;100.00;;;;;;5014421;28;20028;-75
2024/02/14 05:47:40;;;;;;;;;;;3.20;100.00;;;;;;5045462;28;20293;-76
2024/02/14 05:50:08;;;;;;;;;;;3.10;100.00;;;;;;5030203;28;19929;-76
2024/02/14 05:52:35;;;;;;;;;;;3.10;100.00;;;;;;5029125;28;19983;-76
2024/02/14 05:55:03;;;;;;;;;;;3.10;100.00;;;;;;5018472;28;19929;-78
2024/02/14 05:57:30;;;;;;;;;;;3.10;100.00;;;;;;5025289;28;19933;-76
2024/02/14 05:59:57;;;;;;;;;;;3.10;100.00;;;;;;5025132;28;19936;-76
2024/02/14 06:02:24;;;;;;;;;;;3.10;100.00;;;;;;5017181;28;19925;-78
2024/02/14 06:04:50;;;;;;;;;;;3.10;100.00;;;;;;5027663;28;20024;-79
2024/02/14 06:07:17;;;;;;;;;;;3.10;100.00;;;;;;5017593;28;20675;-74
2024/02/14 06:09:45;;;;;;;;;;;3.10;100.00;;;;;;5020306;28;20015;-74
2024/02/14 06:12:12;;;;;;;;;;;3.10;100.00;;;;;;5021657;28;19929;-74
2024/02/14 06:14:39;;;;;;;;;;;3.10;100.00;;;;;;5016167;28;19936;-75
2024/02/14 06:17:06;;;;;;;;;;;3.10;100.00;;;;;;5017136;28;19936;-74
2024/02/14 06:19:34;;;;;;;;;;;3.10;100.00;;;;;;5016292;28;20423;-74
2024/02/14 06:22:06;;;;;;;;;;;3.10;100.00;;;;;;5018407;28;19937;-74
2024/02/14 06:24:32;;;;;;;;;;;3.10;100.00;;;;;;5023657;28;19929;-75
2024/02/14 06:26:59;;;;;;;;;;;3.10;100.00;;;;;;5019953;28;19986;-74
2024/02/14 06:29:26;;;;;;;;;;;3.10;100.00;;;;;;5022312;28;20000;-78
2024/02/14 06:31:53;;;;;;;;;;;3.10;100.00;;;;;;5028026;28;19961;-78
2024/02/14 06:34:20;;;;;;;;;;;3.10;100.00;;;;;;5020419;28;19929;-78
2024/02/14 06:36:47;;;;;;;;;;;3.10;100.00;;;;;;5032097;28;19929;-78
2024/02/14 06:39:14;;;;;;;;;;;3.10;100.00;;;;;;5026976;28;19948;-78
2024/02/14 06:41:41;;;;;;;;;;;3.10;100.00;;;;;;5026296;28;19935;-77
2024/02/14 06:44:07;;;;;;;;;;;3.10;100.00;;;;;;5024027;28;20051;-78
2024/02/14 06:46:37;;;;;;;;;;;3.10;100.00;;;;;;5030734;28;19925;-78
2024/02/14 06:49:04;;;;;;;;;;;3.10;100.00;;;;;;5030383;28;20003;-78
2024/02/14 06:51:31;;;;;;;;;;;3.10;100.00;;;;;;5023784;28;19930;-78
2024/02/14 06:53:57;;;;;;;;;;;3.10;100.00;;;;;;5031147;28;19937;-78
2024/02/14 06:56:24;;;;;;;;;;;3.10;100.00;;;;;;5017366;28;19930;-78
2024/02/14 06:58:53;;;;;;;;;;;3.10;100.00;;;;;;5026631;28;19937;-78
2024/02/14 07:01:22;;;;;;;;;;;3.10;100.00;;;;;;5026515;28;19937;-78
2024/02/14 07:03:49;;;;;;;;;;;3.10;100.00;;;;;;5030957;28;19933;-78
2024/02/14 07:06:17;;;;;;;;;;;3.10;100.00;;;;;;5030053;28;19968;-77
2024/02/14 07:08:44;;;;;;;;;;;3.20;100.00;;;;;;5022318;28;19929;-78
2024/02/14 07:11:11;;;;;;;;;;;3.20;100.00;;;;;;5027240;28;19925;-78
2024/02/14 07:13:37;;;;;;;;;;;3.20;100.00;;;;;;5029038;28;19963;-78
2024/02/14 07:16:04;;;;;;;;;;;3.20;100.00;;;;;;5027834;28;20532;-78
2024/02/14 07:18:35;;;;;;;;;;;3.20;100.00;;;;;;5024554;28;19972;-78
2024/02/14 07:21:05;;;;;;;;;;;3.20;100.00;;;;;;5026858;28;19930;-78
2024/02/14 07:23:33;;;;;;;;;;;3.20;100.00;;;;;;5023427;28;19929;-78
2024/02/14 07:26:01;;;;;;;;;;;3.20;100.00;;;;;;5017536;28;19926;-78
2024/02/14 07:28:28;;;;;;;;;;;3.20;100.00;;;;;;5017250;28;19980;-78
2024/02/14 07:30:54;;;;;;;;;;;3.30;100.00;;;;;;5028150;28;19987;-78
2024/02/14 07:33:21;;;;;;;;;;;3.30;100.00;;;;;;5024470;28;19968;-78
2024/02/14 07:35:48;;;;;;;;;;;3.30;100.00;;;;;;5028842;28;19932;-78
2024/02/14 07:38:16;;;;;;;;;;;3.30;100.00;;;;;;5016904;28;19937;-78
2024/02/14 07:40:43;;;;;;;;;;;3.30;100.00;;;;;;5012127;28;19979;-78
2024/02/14 07:43:18;;;;;;;;;;;3.30;100.00;;;;;;5016140;28;20039;-71
2024/02/14 07:45:45;;;;;;;;;;;3.30;100.00;;;;;;5013697;28;20326;-71
2024/02/14 07:48:12;;;;;;;;;;;3.30;100.00;;;;;;5023979;28;19929;-71
2024/02/14 07:50:39;;;;;;;;;;;3.30;100.00;;;;;;5024062;28;20781;-71
2024/02/14 07:53:06;;;;;;;;;;;3.40;100.00;;;;;;5021952;28;19929;-71
2024/02/14 07:55:33;;;;;;;;;;;3.40;100.00;;;;;;5006831;28;19937;-71
2024/02/14 07:58:00;;;;;;;;;;;3.40;100.00;;;;;;5006336;28;19929;-71
2024/02/14 08:00:27;;;;;;;;;;;3.40;100.00;;;;;;5007079;28;20301;-71
2024/02/14 08:02:53;;;;;;;;;;;3.40;100.00;;;;;;5017779;28;20018;-71
2024/02/14 08:05:20;;;;;;;;;;;3.50;100.00;;;;;;5017626;28;19933;-71
2024/02/14 08:07:47;;;;;;;;;;;3.50;100.00;;;;;;5008140;28;20759;-71
2024/02/14 08:10:14;;;;;;;;;;;3.60;100.00;;;;;;5006697;28;20044;-71
2024/02/14 08:12:40;;;;;;;;;;;3.60;100.00;;;;;;5005517;28;19940;-71
2024/02/14 08:15:07;;;;;;;;;;;3.60;100.00;;;;;;5023861;28;19929;-71
2024/02/14 08:17:35;;;;;;;;;;;3.70;100.00;;;;;;5016268;28;19929;-71
2024/02/14 08:20:03;;;;;;;;;;;3.80;100.00;;;;;;5007492;28;19936;-71
2024/02/14 08:22:31;;;;;;;;;;;3.90;100.00;;;;;;5005713;28;19963;-71
2024/02/14 08:24:58;;;;;;;;;;;3.90;100.00;;;;;;5034365;28;19933;-71
2024/02/14 08:27:25;;;;;;;;;;;4.00;100.00;;;;;;5012819;28;19983;-71
2024/02/14 08:29:52;;;;;;;;;;;4.10;100.00;;;;;;5023949;28;19932;-72
2024/02/14 08:32:19;;;;;;;;;;;4.10;100.00;;;;;;5024836;28;19929;-71
2024/02/14 08:34:47;;;;;;;;;;;4.10;100.00;;;;;;5024199;28;19929;-71
2024/02/14 08:37:14;;;;;;;;;;;4.10;100.00;;;;;;5022446;28;20032;-71
2024/02/14 08:39:41;;;;;;;;;;;4.20;100.00;;;;;;5007745;28;19930;-71
2024/02/14 08:42:08;;;;;;;;;;;4.10;100.00;;;;;;5023566;28;19976;-71
2024/02/14 08:44:35;;;;;;;;;;;4.10;100.00;;;;;;5023600;28;19929;-71
2024/02/14 08:47:02;;;;;;;;;;;4.20;100.00;;;;;;5024707;28;19933;-71
2024/02/14 08:49:29;;;;;;;;;;;4.10;100.00;;;;;;5024614;28;20278;-70
2024/02/14 08:51:55;;;;;;;;;;;4.10;100.00;;;;;;5019754;28;19934;-70
2024/02/14 08:54:23;;;;;;;;;;;4.20;100.00;;;;;;5032244;28;19961;-71
2024/02/14 08:56:52;;;;;;;;;;;4.20;100.00;;;;;;5018271;28;19992;-70
2024/02/14 08:59:20;;;;;;;;;;;4.20;100.00;;;;;;5019015;28;19929;-74
2024/02/14 09:01:46;;;;;;;;;;;4.20;100.00;;;;;;5020680;28;19976;-74
2024/02/14 09:04:13;;;;;;;;;;;4.20;100.00;;;;;;5016188;28;19929;-74
2024/02/14 09:06:40;;;;;;;;;;;4.20;100.00;;;;;;5017359;28;19929;-74
2024/02/14 09:09:10;;;;;;;;;;;4.20;100.00;;;;;;5062047;28;19979;-79
2024/02/14 09:11:37;;;;;;;;;;;4.20;100.00;;;;;;5038230;28;19935;-71
2024/02/14 09:14:06;;;;;;;;;;;4.20;100.00;;;;;;5030523;28;19936;-71
2024/02/14 09:16:33;;;;;;;;;;;4.20;100.00;;;;;;5039048;28;19992;-71
2024/02/14 09:19:01;;;;;;;;;;;4.20;100.00;;;;;;5021069;28;19929;-71
2024/02/14 09:21:28;;;;;;;;;;;4.20;100.00;;;;;;5014595;28;20624;-71
2024/02/14 09:23:55;;;;;;;;;;;4.20;100.00;;;;;;5020621;28;20052;-71
2024/02/14 09:26:22;;;;;;;;;;;4.20;100.00;;;;;;5005317;28;20389;-70
2024/02/14 09:28:48;;;;;;;;;;;4.20;100.00;;;;;;5004857;28;19985;-71
2024/02/14 09:31:19;;;;;;;;;;;4.30;100.00;;;;;;5011745;28;20059;-70
2024/02/14 09:33:49;;;;;;;;;;;4.30;100.00;;;;;;5006912;28;19941;-71
2024/02/14 09:36:16;;;;;;;;;;;4.30;100.00;;;;;;5021370;28;19976;-71
2024/02/14 09:38:44;;;;;;;;;;;4.30;100.00;;;;;;5024593;28;19951;-71
2024/02/14 09:41:15;;;;;;;;;;;4.40;100.00;;;;;;5024834;28;19945;-71
2024/02/14 09:43:44;;;;;;;;;;;4.40;100.00;;;;;;5024159;28;20627;-70
2024/02/14 09:46:14;;;;;;;;;;;4.50;100.00;;;;;;5036707;28;19937;-70
2024/02/14 09:48:44;;;;;;;;;;;4.50;100.00;;;;;;5020221;28;19933;-71
2024/02/14 09:51:12;;;;;;;;;;;4.60;100.00;;;;;;5011647;28;19940;-71
2024/02/14 09:53:39;;;;;;;;;;;4.60;100.00;;;;;;5032806;28;20038;-71
2024/02/14 09:56:08;;;;;;;;;;;4.60;100.00;;;;;;5013725;28;19929;-71
2024/02/14 09:58:36;;;;;;;;;;;4.60;100.00;;;;;;5024584;28;19973;-71
2024/02/14 10:01:03;;;;;;;;;;;4.60;100.00;;;;;;5017250;28;19936;-72
2024/02/14 10:03:30;;;;;;;;;;;4.60;100.00;;;;;;5020476;28;19937;-72
2024/02/14 10:05:57;;;;;;;;;;;4.70;100.00;;;;;;5023246;28;19933;-72
2024/02/14 10:08:26;;;;;;;;;;;4.70;100.00;;;;;;5024270;28;20420;-72
2024/02/14 10:10:53;;;;;;;;;;;4.70;100.00;;;;;;5022316;28;19928;-71
2024/02/14 10:13:22;;;;;;;;;;;4.70;100.00;;;;;;5019102;28;19940;-71
2024/02/14 10:16:08;;;;;;;;;;;4.70;100.00;;;;;;5022234;28;19994;-72
2024/02/14 10:18:58;;;;;;;;;;;4.80;100.00;;;;;;5047884;23;19925;-71
2024/02/14 10:21:28;;;;;;;;;;;4.80;100.00;;;;;;5024841;28;19925;-71
2024/02/14 10:23:57;;;;;;;;;;;4.90;100.00;;;;;;5024388;28;19944;-72
2024/02/14 10:26:24;;;;;;;;;;;4.90;100.00;;;;;;5024453;28;20270;-72
2024/02/14 10:28:51;;;;;;;;;;;5.00;100.00;;;;;;5022825;28;20012;-71
2024/02/14 10:31:18;;;;;;;;;;;4.90;100.00;;;;;;5021047;28;19929;-71
2024/02/14 10:33:45;;;;;;;;;;;5.00;100.00;;;;;;5018005;28;19933;-71
2024/02/14 10:36:12;;;;;;;;;;;5.10;100.00;;;;;;5015501;28;19934;-71
2024/02/14 10:38:39;;;;;;;;;;;5.10;100.00;;;;;;5026059;28;19929;-72
2024/02/14 10:41:07;;;;;;;;;;;5.20;100.00;;;;;;5024492;28;19929;-71
2024/02/14 10:43:38;;;;;;;;;;;5.30;100.00;;;;;;5024297;28;19944;-71
2024/02/14 10:46:08;;;;;;;;;;;5.30;100.00;;;;;;5024188;28;20362;-72
2024/02/14 10:48:35;;;;;;;;;;;5.30;100.00;;;;;;5022959;28;19936;-71
2024/02/14 10:51:05;;;;;;;;;;;5.30;100.00;;;;;;5026410;28;19935;-71
2024/02/14 10:53:34;;;;;;;;;;;5.30;100.00;;;;;;5023846;28;19933;-71
2024/02/14 10:56:02;;;;;;;;;;;5.30;100.00;;;;;;5017748;28;19929;-72
2024/02/14 10:58:30;;;;;;;;;;;5.30;100.00;;;;;;5017308;28;19933;-72
2024/02/14 11:00:58;;;;;;;;;;;5.30;100.00;;;;;;5019884;28;20028;-71
2024/02/14 11:03:25;;;;;;;;;;;5.30;100.00;;;;;;5026642;28;19939;-71
2024/02/14 11:05:53;;;;;;;;;;;5.40;100.00;;;;;;5026368;28;19929;-71
2024/02/14 11:08:21;;;;;;;;;;;5.40;100.00;;;;;;5026194;28;19964;-71
2024/02/14 11:10:56;;;;;;;;;;;5.40;100.00;;;;;;5027554;28;20371;-71
2024/02/14 11:13:30;;;;;;;;;;;5.50;100.00;;;;;;5026040;28;20286;-71
2024/02/14 11:16:01;;;;;;;;;;;5.40;100.00;;;;;;5006747;28;20575;-71
2024/02/14 11:18:33;;;;;;;;;;;5.50;100.00;;;;;;5016875;28;19929;-71
2024/02/14 11:21:03;;;;;;;;;;;5.60;100.00;;;;;;5020081;28;19932;-71
2024/02/14 11:23:30;;;;;;;;;;;5.60;100.00;;;;;;5023795;28;19935;-71
2024/02/14 11:26:01;;;;;;;;;;;5.60;100.00;;;;;;5026943;28;20378;-71
2024/02/14 11:28:29;;;;;;;;;;;5.70;100.00;;;;;;5025458;28;20583;-71
2024/02/14 11:31:00;;;;;;;;;;;5.70;100.00;;;;;;5027553;28;19933;-71
2024/02/14 11:33:27;;;;;;;;;;;5.80;100.00;;;;;;5021785;28;19929;-71
2024/02/14 11:35:55;;;;;;;;;;;5.80;100.00;;;;;;5016512;28;20217;-71
2024/02/14 11:38:24;;;;;;;;;;;5.80;100.00;;;;;;5031037;28;19935;-71
2024/02/14 11:40:51;;;;;;;;;;;5.90;100.00;;;;;;5026281;28;19938;-71
2024/02/14 11:43:21;;;;;;;;;;;6.00;100.00;;;;;;5024855;28;19936;-71
2024/02/14 11:45:52;;;;;;;;;;;6.10;100.00;;;;;;5025352;28;20002;-72
2024/02/14 11:48:23;;;;;;;;;;;6.20;100.00;;;;;;5025179;28;20031;-71
2024/02/14 11:50:51;;;;;;;;;;;6.20;100.00;;;;;;5026545;28;20020;-71
2024/02/14 11:53:19;;;;;;;;;;;6.20;100.00;;;;;;5010605;28;20016;-71
2024/02/14 11:55:48;;;;;;;;;;;6.20;100.00;;;;;;5007478;28;19976;-71
2024/02/14 11:58:16;;;;;;;;;;;6.20;100.00;;;;;;5026314;28;19937;-71
2024/02/14 12:00:43;;;;;;;;;;;6.20;100.00;;;;;;5026805;28;19939;-71
2024/02/14 12:03:16;;;;;;;;;;;6.20;100.00;;;;;;5026503;28;19936;-71
2024/02/14 12:05:44;;;;;;;;;;;6.30;100.00;;;;;;5017053;28;19929;-71
2024/02/14 12:08:11;;;;;;;;;;;6.30;100.00;;;;;;5020244;28;19929;-71
2024/02/14 12:10:38;;;;;;;;;;;6.30;100.00;;;;;;5009722;28;19991;-71
2024/02/14 12:13:09;;;;;;;;;;;6.30;100.00;;;;;;5006407;28;19999;-71
2024/02/14 12:15:44;;;;;;;;;;;6.30;100.00;;;;;;5006749;28;19940;-71
2024/02/14 12:18:11;;;;;;;;;;;6.30;100.00;;;;;;5006185;28;19987;-71
2024/02/14 12:20:38;;;;;;;;;;;6.30;100.00;;;;;;5006408;28;19930;-71
2024/02/14 12:23:05;;;;;;;;;;;6.30;100.00;;;;;;5008596;28;19929;-71
2024/02/14 12:25:32;;;;;;;;;;;6.30;100.00;;;;;;5022455;28;19929;-71
2024/02/14 12:28:00;;;;;;;;;;;6.30;100.00;;;;;;5021330;28;19940;-71
2024/02/14 12:30:43;;;;;;;;;;;6.40;100.00;;;;;;5018080;28;19936;-71
2024/02/14 12:33:11;;;;;;;;;;;6.40;100.00;;;;;;5024532;28;20016;-71
2024/02/14 12:35:42;;;;;;;;;;;6.50;100.00;;;;;;5022272;28;19936;-72
2024/02/14 12:38:09;;;;;;;;;;;6.50;100.00;;;;;;5023853;28;19928;-72
2024/02/14 12:40:36;;;;;;;;;;;6.50;100.00;;;;;;5024181;28;19937;-72
2024/02/14 12:43:03;;;;;;;;;;;6.50;100.00;;;;;;5025643;28;19976;-71
2024/02/14 12:45:29;;;;;;;;;;;6.60;100.00;;;;;;5025304;28;19999;-72
2024/02/14 12:47:56;;;;;;;;;;;6.70;100.00;;;;;;5024159;28;19987;-72
2024/02/14 12:50:23;;;;;;;;;;;6.70;100.00;;;;;;5025735;28;19968;-72
2024/02/14 12:52:50;;;;;;;;;;;6.70;100.00;;;;;;5025660;28;19929;-72
2024/02/14 12:55:18;;;;;;;;;;;6.80;100.00;;;;;;5020450;28;20028;-71
2024/02/14 12:57:45;;;;;;;;;;;6.80;100.00;;;;;;5016272;28;20279;-72
2024/02/14 13:00:14;;;;;;;;;;;6.80;100.00;;;;;;5019007;28;20143;-72
2024/02/14 13:02:42;;;;;;;;;;;6.80;100.00;;;;;;5010408;28;19983;-71
2024/02/14 13:05:09;;;;;;;;;;;6.80;100.00;;;;;;5020761;28;19937;-71
2024/02/14 13:07:36;;;;;;;;;;;6.80;100.00;;;;;;5023233;28;19933;-71
2024/02/14 13:10:03;;;;;;;;;;;6.90;100.00;;;;;;5008516;28;19936;-71
2024/02/14 13:12:29;;;;;;;;;;;6.90;100.00;;;;;;5016586;28;19933;-71
2024/02/14 13:14:56;;;;;;;;;;;7.00;100.00;;;;;;5018130;28;19933;-71
2024/02/14 13:17:25;;;;;;;;;;;7.00;100.00;;;;;;5020123;28;19936;-71
2024/02/14 13:19:53;;;;;;;;;;;7.00;100.00;;;;;;5016011;28;19929;-72
2024/02/14 13:22:20;;;;;;;;;;;7.00;100.00;;;;;;5019687;28;19937;-72
2024/02/14 13:24:47;;;;;;;;;;;7.00;100.00;;;;;;5023015;28;19936;-71
2024/02/14 13:27:16;;;;;;;;;;;7.00;100.00;;;;;;5035447;28;19972;-71
2024/02/14 13:29:43;;;;;;;;;;;7.00;100.00;;;;;;5014829;28;19930;-71
2024/02/14 13:32:10;;;;;;;;;;;7.00;100.00;;;;;;5018925;28;20552;-71
2024/02/14 13:34:37;;;;;;;;;;;7.00;100.00;;;;;;5034581;28;19933;-72
2024/02/14 13:37:05;;;;;;;;;;;7.00;100.00;;;;;;5018985;28;19964;-72
2024/02/14 13:39:32;;;;;;;;;;;7.00;100.00;;;;;;5021854;28;20074;-72
2024/02/14 13:41:59;;;;;;;;;;;7.10;100.00;;;;;;5018445;28;20040;-72
2024/02/14 13:44:27;;;;;;;;;;;7.10;100.00;;;;;;5019144;28;19933;-72
2024/02/14 13:46:53;;;;;;;;;;;7.20;100.00;;;;;;5017652;28;20589;-72
2024/02/14 13:49:23;;;;;;;;;;;7.20;100.00;;;;;;5018507;28;19968;-72
2024/02/14 13:51:51;;;;;;;;;;;7.30;100.00;;;;;;5015399;28;19933;-72
2024/02/14 13:54:18;;;;;;;;;;;7.20;100.00;;;;;;5021077;28;19991;-72
2024/02/14 13:56:46;;;;;;;;;;;7.20;100.00;;;;;;5016209;28;19937;-72
2024/02/14 13:59:12;;;;;;;;;;;7.20;100.00;;;;;;5020902;28;19929;-72
2024/02/14 14:01:39;;;;;;;;;;;7.20;100.00;;;;;;5020499;28;20611;-72
2024/02/14 14:04:06;;;;;;;;;;;7.20;100.00;;;;;;5015698;28;19937;-72
2024/02/14 14:06:34;;;;;;;;;;;7.30;100.00;;;;;;5032055;28;19929;-72
2024/02/14 14:09:02;;;;;;;;;;;7.30;100.00;;;;;;5015843;28;19929;-72
2024/02/14 14:11:29;;;;;;;;;;;7.40;100.00;;;;;;5016511;28;19960;-72
2024/02/14 14:14:00;;;;;;;;;;;7.40;100.00;;;;;;5018954;28;19933;-72
2024/02/14 14:19:00;;;;;;;;;;;7.40;100.00;;;;;;5020424;28;19929;-72
2024/02/14 14:21:27;;;;;;;;;;;7.50;100.00;;;;;;5022512;28;20469;-72